createdAt,value
2019-06-10T00:01:42.550Z,11.70
2019-06-10T00:04:13.453Z,11.70
2019-06-10T00:06:45.971Z,11.60
2019-06-10T00:09:17.992Z,11.60
2019-06-10T00:11:51.506Z,11.50
2019-06-10T00:14:25.087Z,11.50
2019-06-10T00:20:03.397Z,11.50
2019-06-10T00:28:00.534Z,11.40
2019-06-10T00:33:15.515Z,11.30
2019-06-10T00:35:56.267Z,11.30
2019-06-10T00:38:27.173Z,11.30
2019-06-10T00:43:41.246Z,11.20
2019-06-10T00:46:13.346Z,11.20
2019-06-10T00:59:15.156Z,11.00
2019-06-10T01:01:45.522Z,11.00
2019-06-10T01:04:16.651Z,10.90
2019-06-10T01:09:31.070Z,10.80
2019-06-10T01:15:13.592Z,10.80
2019-06-10T01:17:45.208Z,10.80
2019-06-10T01:20:22.258Z,10.80
2019-06-10T01:25:31.077Z,10.80
2019-06-10T01:28:05.663Z,10.90
2019-06-10T01:30:36.956Z,10.90
2019-06-10T01:33:14.846Z,10.90
2019-06-10T01:38:26.782Z,10.80
2019-06-10T01:40:57.811Z,10.90
2019-06-10T01:46:06.574Z,10.90
2019-06-10T01:48:47.823Z,10.80
2019-06-10T01:51:21.397Z,10.80
2019-06-10T01:53:52.474Z,10.90
2019-06-10T01:59:06.180Z,10.80
2019-06-10T02:01:46.959Z,10.80
2019-06-10T02:04:22.010Z,10.80
2019-06-10T02:07:01.411Z,10.80
2019-06-10T02:09:33.248Z,10.90
2019-06-10T02:12:04.786Z,10.90
2019-06-10T02:20:38.299Z,11.00
2019-06-10T02:25:51.289Z,11.10
2019-06-10T02:28:23.211Z,11.10
2019-06-10T02:31:03.029Z,11.10
2019-06-10T02:33:36.017Z,11.20
2019-06-10T02:36:05.115Z,11.20
2019-06-10T02:38:39.540Z,11.30
2019-06-10T02:41:14.141Z,11.20
2019-06-10T02:43:47.070Z,11.30
2019-06-10T02:46:23.443Z,11.30
2019-06-10T02:48:54.190Z,11.30
2019-06-10T02:51:28.669Z,11.30
2019-06-10T02:53:55.612Z,11.40
2019-06-10T02:56:30.695Z,11.50
2019-06-10T02:58:59.104Z,11.60
2019-06-10T03:01:34.308Z,11.70
2019-06-10T03:04:04.430Z,11.90
2019-06-10T03:06:40.480Z,12.10
2019-06-10T03:09:14.172Z,12.30
2019-06-10T03:11:45.076Z,12.60
2019-06-10T03:14:17.654Z,12.70
2019-06-10T03:16:52.625Z,12.90
2019-06-10T03:19:42.303Z,13.00
2019-06-10T03:21:57.533Z,13.20
2019-06-10T03:24:28.447Z,13.30
2019-06-10T03:26:59.403Z,13.30
2019-06-10T03:29:32.631Z,13.20
2019-06-10T03:37:23.248Z,13.20
2019-06-10T03:45:21.797Z,13.80
2019-06-10T03:50:36.324Z,14.10
2019-06-10T03:53:08.113Z,14.20
2019-06-10T03:55:42.233Z,14.20
2019-06-10T03:58:12.669Z,14.10
2019-06-10T04:00:43.907Z,14.20
2019-06-10T04:03:15.678Z,14.50
2019-06-10T04:05:52.684Z,14.70
2019-06-10T04:08:25.126Z,14.90
2019-06-10T04:10:56.408Z,15.00
2019-06-10T04:16:04.889Z,15.00
2019-06-10T04:18:36.636Z,15.10
2019-06-10T04:21:13.589Z,15.40
2019-06-10T04:26:28.187Z,15.70
2019-06-10T04:28:58.983Z,15.90
2019-06-10T04:31:29.923Z,16.00
2019-06-10T04:34:02.923Z,16.10
2019-06-10T04:36:38.634Z,16.30
2019-06-10T04:47:07.656Z,16.90
2019-06-10T04:49:39.730Z,16.90
2019-06-10T04:52:15.864Z,17.10
2019-06-10T05:00:13.947Z,17.60
2019-06-10T05:02:43.670Z,17.70
2019-06-10T05:05:15.694Z,17.80
2019-06-10T05:07:52.088Z,17.90
2019-06-10T05:13:04.638Z,18.00
2019-06-10T05:15:35.552Z,18.30
2019-06-10T05:18:14.356Z,18.50
2019-06-10T05:20:54.906Z,18.70
2019-06-10T05:23:22.126Z,18.60
2019-06-10T05:25:57.582Z,18.80
2019-06-10T05:33:53.158Z,19.40
2019-06-10T05:44:17.941Z,19.90
2019-06-10T05:59:56.215Z,20.50
2019-06-10T06:02:36.524Z,20.90
2019-06-10T06:05:12.804Z,20.50
2019-06-10T06:20:55.455Z,23.40
2019-06-10T06:23:36.666Z,22.80
2019-06-10T06:28:55.912Z,25.70
2019-06-10T06:31:28.263Z,26.20
2019-06-10T06:39:19.387Z,24.80
2019-06-10T06:44:39.673Z,25.60
2019-06-10T06:47:19.486Z,24.00
2019-06-10T07:00:54.372Z,24.10
2019-06-10T07:03:13.606Z,25.10
2019-06-10T07:08:28.138Z,25.80
2019-06-10T07:11:02.804Z,26.60
2019-06-10T07:13:37.492Z,27.60
2019-06-10T07:16:08.377Z,27.50
2019-06-10T07:18:46.579Z,27.50
2019-06-10T07:21:18.197Z,27.00
2019-06-10T07:23:49.097Z,27.10
2019-06-10T07:34:22.689Z,27.60
2019-06-10T07:36:59.399Z,27.70
2019-06-10T07:39:36.846Z,25.90
2019-06-10T07:55:22.061Z,30.40
2019-06-10T07:58:45.001Z,30.90
2019-06-10T08:22:57.737Z,30.50
2019-06-10T08:28:13.416Z,29.70
2019-06-10T08:30:48.530Z,29.50
2019-06-10T08:33:28.997Z,30.20
2019-06-10T08:36:04.353Z,29.30
2019-06-10T08:38:40.243Z,29.10
2019-06-10T08:46:39.477Z,30.20
2019-06-10T08:49:19.221Z,30.40
2019-06-10T09:00:49.545Z,30.80
2019-06-10T09:03:24.457Z,31.60
2019-06-10T09:08:53.859Z,32.20
2019-06-10T09:11:35.151Z,32.60
2019-06-10T09:14:12.629Z,32.10
2019-06-10T09:16:46.942Z,32.10
2019-06-10T09:19:16.319Z,32.40
2019-06-10T09:21:55.983Z,33.20
2019-06-10T09:24:32.770Z,32.80
2019-06-10T09:29:49.783Z,32.60
2019-06-10T09:32:19.888Z,32.10
2019-06-10T09:48:13.470Z,32.20
2019-06-10T09:50:58.895Z,31.30
2019-06-10T09:53:35.726Z,31.80
2019-06-10T09:56:08.401Z,31.70
2019-06-10T09:58:46.030Z,31.20
2019-06-10T10:01:18.918Z,31.00
2019-06-10T10:03:58.299Z,31.30
2019-06-10T10:06:32.773Z,31.50
2019-06-10T10:17:04.453Z,31.00
2019-06-10T10:22:22.915Z,31.80
2019-06-10T10:27:38.448Z,31.90
2019-06-10T10:30:13.502Z,32.10
2019-06-10T10:32:47.631Z,31.40
2019-06-10T10:35:18.014Z,31.90
2019-06-10T10:40:35.908Z,31.30
2019-06-10T10:43:23.275Z,32.60
2019-06-10T10:45:39.500Z,32.40
2019-06-10T10:53:33.861Z,32.70
2019-06-10T10:56:05.008Z,31.60
2019-06-10T10:58:43.687Z,31.80
2019-06-10T11:14:26.301Z,31.90
2019-06-10T11:24:51.291Z,30.60
2019-06-10T11:27:23.345Z,30.60
2019-06-10T11:29:57.350Z,31.60
2019-06-10T11:35:12.002Z,31.80
2019-06-10T11:45:45.720Z,31.60
2019-06-10T11:48:23.611Z,31.30
2019-06-10T11:50:56.495Z,29.90
2019-06-10T11:58:44.362Z,29.30
2019-06-10T12:01:22.680Z,29.60
2019-06-10T12:03:58.866Z,30.70
2019-06-10T12:06:39.814Z,32.00
2019-06-10T12:09:14.826Z,32.40
2019-06-10T12:14:26.783Z,34.20
2019-06-10T12:19:29.755Z,30.60
2019-06-10T12:22:06.958Z,30.30
2019-06-10T12:29:46.689Z,32.00
2019-06-10T12:32:17.605Z,32.20
2019-06-10T12:37:33.634Z,31.70
2019-06-10T12:45:28.271Z,31.50
2019-06-10T12:48:04.181Z,30.00
2019-06-10T12:53:17.547Z,30.30
2019-06-10T12:58:34.030Z,30.30
2019-06-10T13:01:06.234Z,29.20
2019-06-10T13:03:47.210Z,29.30
2019-06-10T13:06:18.940Z,29.20
2019-06-10T13:11:33.387Z,28.60
2019-06-10T13:19:44.225Z,29.10
2019-06-10T13:22:23.094Z,28.80
2019-06-10T13:33:00.115Z,27.40
2019-06-10T13:35:34.610Z,27.30
2019-06-10T13:40:55.174Z,26.90
2019-06-10T13:46:16.399Z,27.30
2019-06-10T13:51:32.414Z,27.40
2019-06-10T14:15:23.309Z,26.60
2019-06-10T14:18:03.438Z,26.60
2019-06-10T14:20:36.716Z,26.50
2019-06-10T14:23:08.003Z,26.40
2019-06-10T14:25:42.553Z,26.30
2019-06-10T14:28:32.279Z,26.30
2019-06-10T14:30:53.731Z,26.30
2019-06-10T14:36:10.494Z,26.30
2019-06-10T14:38:49.560Z,26.00
2019-06-10T14:41:29.011Z,26.10
2019-06-10T14:57:22.884Z,25.80
2019-06-10T15:00:09.756Z,26.00
2019-06-10T15:02:47.521Z,26.00
2019-06-10T15:08:07.326Z,25.70
2019-06-10T15:10:44.179Z,25.70
2019-06-10T15:29:23.503Z,25.40
2019-06-10T15:34:48.950Z,25.40
2019-06-10T15:37:59.236Z,25.40
2019-06-10T15:41:46.993Z,25.50
2019-06-10T15:46:37.455Z,25.80
2019-06-10T15:49:08.176Z,25.70
2019-06-10T15:51:43.614Z,25.40
2019-06-10T15:56:56.762Z,25.30
2019-06-10T15:59:28.657Z,25.30
2019-06-10T16:07:18.912Z,25.00
2019-06-10T16:09:50.223Z,24.80
2019-06-10T16:20:13.069Z,24.50
2019-06-10T16:30:44.053Z,24.00
2019-06-10T16:33:16.492Z,23.90
2019-06-10T16:35:53.786Z,23.90
2019-06-10T16:38:25.846Z,23.70
2019-06-10T16:43:42.890Z,23.50
2019-06-10T16:46:24.676Z,23.50
2019-06-10T16:49:03.684Z,23.40
2019-06-10T16:51:34.629Z,23.30
2019-06-10T16:54:12.867Z,23.10
2019-06-10T16:56:47.325Z,23.00
2019-06-10T17:02:07.227Z,22.90
2019-06-10T17:07:26.945Z,22.90
2019-06-10T17:12:42.582Z,22.70
2019-06-10T17:18:06.364Z,22.50
2019-06-10T17:20:42.779Z,22.50
2019-06-10T17:23:28.052Z,22.50
2019-06-10T17:28:36.705Z,22.40
2019-06-10T17:31:08.492Z,22.10
2019-06-10T17:33:42.715Z,22.00
2019-06-10T17:36:14.457Z,21.90
2019-06-10T17:38:52.317Z,21.90
2019-06-10T17:41:31.566Z,21.90
2019-06-10T17:44:02.642Z,21.70
2019-06-10T17:51:54.236Z,21.50
2019-06-10T17:57:07.796Z,21.50
2019-06-10T18:02:23.047Z,21.40
2019-06-10T18:04:58.948Z,21.30
2019-06-10T18:10:13.225Z,21.40
2019-06-10T18:15:28.130Z,21.30
2019-06-10T18:18:03.502Z,21.30
2019-06-10T18:20:36.969Z,21.30
2019-06-10T18:31:18.762Z,21.10
2019-06-10T18:36:34.631Z,21.00
2019-06-10T18:41:48.166Z,20.90
2019-06-10T18:44:23.325Z,20.90
2019-06-10T18:46:52.296Z,20.80
2019-06-10T18:49:23.544Z,20.80
2019-06-10T18:51:54.565Z,20.90
2019-06-10T18:57:04.459Z,20.80
2019-06-10T18:59:42.813Z,20.70
2019-06-10T19:02:13.835Z,20.60
2019-06-10T19:04:44.795Z,20.50
2019-06-10T19:07:15.755Z,20.60
2019-06-10T19:09:52.891Z,20.50
2019-06-10T19:12:34.095Z,20.50
2019-06-10T19:17:48.134Z,20.40
2019-06-10T19:23:02.443Z,20.30
2019-06-10T19:25:36.910Z,20.30
2019-06-10T19:36:03.502Z,20.20
2019-06-10T19:38:35.447Z,20.20
2019-06-10T19:46:34.080Z,20.10
2019-06-10T19:49:14.825Z,20.10
2019-06-10T19:51:47.679Z,20.10
2019-06-10T20:10:05.660Z,20.10
2019-06-10T20:12:46.735Z,20.10
2019-06-10T20:15:23.365Z,20.10
2019-06-10T20:17:56.682Z,20.20
2019-06-10T20:20:28.092Z,20.20
2019-06-10T20:28:24.186Z,20.30
2019-06-10T20:30:55.869Z,20.20
2019-06-10T20:33:35.855Z,20.20
2019-06-10T20:36:07.031Z,20.20
2019-06-10T20:38:40.072Z,20.20
2019-06-10T20:41:13.023Z,20.20
2019-06-10T20:46:24.097Z,20.30
2019-06-10T20:48:57.557Z,20.30
2019-06-10T20:51:48.417Z,20.40
2019-06-10T20:54:13.023Z,20.30
2019-06-10T20:56:50.340Z,20.40
2019-06-10T20:59:25.808Z,20.40
2019-06-10T21:01:56.394Z,20.40
2019-06-10T21:04:27.600Z,20.30
2019-06-10T21:09:45.476Z,20.20
2019-06-10T21:12:22.092Z,20.00
2019-06-10T21:14:52.979Z,19.90
2019-06-10T21:17:24.043Z,19.80
2019-06-10T21:19:55.456Z,19.70
2019-06-10T21:22:33.164Z,19.60
2019-06-10T21:27:44.662Z,19.40
2019-06-10T21:30:37.561Z,19.30
2019-06-10T21:32:59.546Z,19.20
2019-06-10T21:38:19.663Z,19.30
2019-06-10T21:40:54.141Z,19.30
2019-06-10T21:43:27.560Z,19.40
2019-06-10T21:48:46.120Z,19.40
2019-06-10T21:51:22.738Z,19.50
2019-06-10T21:54:02.798Z,19.50
2019-06-10T21:59:17.015Z,19.40
2019-06-10T22:01:51.225Z,19.40
2019-06-10T22:04:32.588Z,19.30
2019-06-10T22:07:04.171Z,19.40
2019-06-10T22:10:02.526Z,19.30
2019-06-10T22:21:09.787Z,19.00
2019-06-10T22:23:42.447Z,19.00
2019-06-10T22:26:14.768Z,19.00
2019-06-10T22:28:46.031Z,19.00
2019-06-10T22:31:23.722Z,19.10
2019-06-10T22:39:16.594Z,19.10
2019-06-10T22:41:49.415Z,19.10
2019-06-10T22:44:24.320Z,19.10
2019-06-10T22:46:57.407Z,19.10
2019-06-10T22:49:35.057Z,19.20
2019-06-10T22:52:19.234Z,19.30
2019-06-10T22:54:58.791Z,19.20
2019-06-10T22:57:43.702Z,19.10
2019-06-10T23:02:59.180Z,19.00
2019-06-10T23:05:33.109Z,18.90
2019-06-10T23:08:07.783Z,18.90
2019-06-10T23:13:30.647Z,19.00
2019-06-10T23:19:13.139Z,19.00
2019-06-10T23:21:44.353Z,19.00
2019-06-10T23:24:15.405Z,19.00
2019-06-10T23:26:49.665Z,19.00
2019-06-10T23:29:22.754Z,19.00
2019-06-10T23:32:01.721Z,18.90
2019-06-10T23:34:27.436Z,19.10
2019-06-10T23:36:58.776Z,19.10
2019-06-10T23:39:33.428Z,19.10
2019-06-10T23:42:04.485Z,19.10
2019-06-10T23:44:35.515Z,19.10
2019-06-10T23:47:07.089Z,19.20
2019-06-10T23:49:38.043Z,19.20
2019-06-10T23:52:08.985Z,19.10
2019-06-10T23:54:39.932Z,19.10
2019-06-10T23:57:13.000Z,19.20
2019-06-10T23:59:43.543Z,19.20
